createdAt,value
2016-07-08T00:00:52.058Z,0
2016-07-08T00:01:52.083Z,0
2016-07-08T00:02:52.113Z,0
2016-07-08T00:03:52.118Z,0
2016-07-08T00:04:52.143Z,0
2016-07-08T00:05:52.155Z,0
2016-07-08T00:06:52.185Z,0
2016-07-08T00:07:52.203Z,0
2016-07-08T00:08:52.229Z,0
2016-07-08T00:09:52.228Z,0
2016-07-08T00:10:52.267Z,0
2016-07-08T00:11:52.291Z,0
2016-07-08T00:12:52.301Z,0
2016-07-08T00:13:52.326Z,0
2016-07-08T00:14:52.333Z,0
2016-07-08T00:15:52.357Z,0
2016-07-08T00:16:52.377Z,0
2016-07-08T00:17:52.402Z,0
2016-07-08T00:18:52.422Z,0
2016-07-08T00:19:52.442Z,0
2016-07-08T00:20:52.459Z,0
2016-07-08T00:21:52.474Z,0
2016-07-08T00:22:52.507Z,0
2016-07-08T00:23:52.523Z,0
2016-07-08T00:24:52.541Z,0
2016-07-08T00:25:53.206Z,0
2016-07-08T00:26:52.583Z,0
2016-07-08T00:27:52.609Z,0
2016-07-08T00:28:52.615Z,0
2016-07-08T00:29:52.644Z,0
2016-07-08T00:30:52.663Z,0
2016-07-08T00:31:52.680Z,0
2016-07-08T00:32:52.699Z,0
2016-07-08T00:33:52.727Z,0
2016-07-08T00:34:52.732Z,0
2016-07-08T00:35:52.765Z,0
2016-07-08T00:36:52.786Z,0
2016-07-08T00:37:52.798Z,0
2016-07-08T00:38:52.827Z,0
2016-07-08T00:39:52.838Z,0
2016-07-08T00:40:52.853Z,0
2016-07-08T00:41:52.885Z,0
2016-07-08T00:42:52.902Z,0
2016-07-08T00:43:52.926Z,0
2016-07-08T00:44:52.940Z,0
2016-07-08T00:45:52.967Z,0
2016-07-08T00:46:52.986Z,0
2016-07-08T00:47:53.015Z,0
2016-07-08T00:48:53.026Z,0
2016-07-08T00:49:53.037Z,0
2016-07-08T00:50:53.063Z,0
2016-07-08T00:51:53.090Z,0
2016-07-08T00:52:53.096Z,0
2016-07-08T00:53:53.123Z,0
2016-07-08T00:54:53.147Z,0
2016-07-08T00:55:53.163Z,0
2016-07-08T00:56:53.185Z,0
2016-07-08T00:57:53.188Z,0
2016-07-08T00:58:53.227Z,0
2016-07-08T00:59:53.240Z,0
2016-07-08T01:00:53.270Z,0
2016-07-08T01:01:53.267Z,0
2016-07-08T01:02:53.306Z,0
2016-07-08T01:03:53.321Z,0
2016-07-08T01:04:53.348Z,0
2016-07-08T01:05:53.355Z,0
2016-07-08T01:06:53.374Z,0
2016-07-08T01:07:53.451Z,0
2016-07-08T01:08:53.421Z,0
2016-07-08T01:09:53.458Z,0
2016-07-08T01:10:53.462Z,0
2016-07-08T01:11:53.476Z,0
2016-07-08T01:12:53.556Z,0
2016-07-08T01:13:53.546Z,0
2016-07-08T01:14:53.584Z,0
2016-07-08T01:15:53.590Z,0
2016-07-08T01:16:53.641Z,0
2016-07-08T01:17:53.592Z,0
2016-07-08T01:18:53.617Z,0
2016-07-08T01:19:53.634Z,0
2016-07-08T01:20:53.655Z,0
2016-07-08T01:21:53.686Z,0
2016-07-08T01:22:53.694Z,0
2016-07-08T01:23:53.758Z,0
2016-07-08T01:24:53.762Z,0
2016-07-08T01:25:53.755Z,0
2016-07-08T01:26:53.769Z,0
2016-07-08T01:27:53.801Z,0
2016-07-08T01:28:53.819Z,0
2016-07-08T01:29:53.831Z,0
2016-07-08T01:30:53.855Z,0
2016-07-08T01:31:53.872Z,0
2016-07-08T01:32:53.888Z,0
2016-07-08T01:33:53.915Z,0
2016-07-08T01:34:53.931Z,0
2016-07-08T01:35:53.959Z,0
2016-07-08T01:36:53.965Z,0
2016-07-08T01:37:53.999Z,0
2016-07-08T01:38:54.007Z,0
2016-07-08T01:39:54.039Z,0
2016-07-08T01:40:54.043Z,0
2016-07-08T01:41:54.069Z,0
2016-07-08T01:42:54.094Z,0
2016-07-08T01:43:54.106Z,0
2016-07-08T01:44:54.130Z,0
2016-07-08T01:45:54.145Z,0
2016-07-08T01:46:54.170Z,0
2016-07-08T01:47:54.193Z,0
2016-07-08T01:48:54.212Z,0
2016-07-08T01:49:54.216Z,0
2016-07-08T01:50:54.257Z,0
2016-07-08T01:51:54.271Z,0
2016-07-08T01:52:54.290Z,0
2016-07-08T01:53:54.298Z,0
2016-07-08T01:54:54.320Z,0
2016-07-08T01:55:54.345Z,0
2016-07-08T01:56:54.363Z,0
2016-07-08T01:57:54.383Z,0
2016-07-08T01:58:54.405Z,0
2016-07-08T01:59:54.435Z,0
2016-07-08T02:00:54.450Z,0
2016-07-08T02:01:54.460Z,0
2016-07-08T02:02:54.491Z,0
2016-07-08T02:03:54.498Z,0
2016-07-08T02:04:54.523Z,0
2016-07-08T02:05:54.541Z,0
2016-07-08T02:06:54.573Z,0
2016-07-08T02:07:54.582Z,0
2016-07-08T02:08:54.605Z,0
2016-07-08T02:09:54.625Z,0
2016-07-08T02:10:54.636Z,0
2016-07-08T02:11:54.660Z,0
2016-07-08T02:12:54.686Z,0
2016-07-08T02:13:54.708Z,0
2016-07-08T02:14:54.723Z,0
2016-07-08T02:15:54.740Z,0
2016-07-08T02:16:54.762Z,0
2016-07-08T02:17:54.777Z,0
2016-07-08T02:18:54.795Z,0
2016-07-08T02:19:54.812Z,0
2016-07-08T02:20:54.843Z,0
2016-07-08T02:21:54.865Z,0
2016-07-08T02:22:54.872Z,0
2016-07-08T02:23:54.923Z,0
2016-07-08T02:24:54.920Z,0
2016-07-08T02:25:54.941Z,0
2016-07-08T02:26:54.952Z,0
2016-07-08T02:27:54.984Z,0
2016-07-08T02:28:54.988Z,0
2016-07-08T02:29:55.017Z,0
2016-07-08T02:30:55.031Z,0
2016-07-08T02:31:55.068Z,0
2016-07-08T02:32:55.078Z,0
2016-07-08T02:33:55.090Z,0
2016-07-08T02:34:55.112Z,0
2016-07-08T02:35:55.137Z,0
2016-07-08T02:36:55.151Z,0
2016-07-08T02:37:55.174Z,0
2016-07-08T02:38:55.192Z,0
2016-07-08T02:39:55.223Z,0
2016-07-08T02:40:55.232Z,0
2016-07-08T02:41:55.259Z,0
2016-07-08T02:42:55.285Z,0
2016-07-08T02:43:55.297Z,4
2016-07-08T02:44:55.312Z,4
2016-07-08T02:45:55.335Z,4
2016-07-08T02:46:55.347Z,0
2016-07-08T02:47:55.374Z,4
2016-07-08T02:48:55.392Z,4
2016-07-08T02:49:55.432Z,4
2016-07-08T02:50:55.423Z,4
2016-07-08T02:51:55.452Z,8
2016-07-08T02:52:55.515Z,8
2016-07-08T02:53:55.549Z,12
2016-07-08T02:54:55.528Z,12
2016-07-08T02:55:55.529Z,8
2016-07-08T02:56:55.557Z,12
2016-07-08T02:57:55.576Z,16
2016-07-08T02:58:55.588Z,16
2016-07-08T02:59:55.606Z,20
2016-07-08T03:00:55.640Z,20
2016-07-08T03:01:55.647Z,20
2016-07-08T03:02:55.706Z,24
2016-07-08T03:03:55.698Z,28
2016-07-08T03:04:55.701Z,32
2016-07-08T03:05:55.731Z,36
2016-07-08T03:06:55.755Z,36
2016-07-08T03:07:55.770Z,40
2016-07-08T03:08:55.785Z,44
2016-07-08T03:09:55.808Z,44
2016-07-08T03:10:55.820Z,48
2016-07-08T03:11:55.851Z,52
2016-07-08T03:12:55.912Z,56
2016-07-08T03:13:55.878Z,56
2016-07-08T03:14:55.908Z,60
2016-07-08T03:15:55.929Z,64
2016-07-08T03:16:55.943Z,64
2016-07-08T03:17:55.977Z,68
2016-07-08T03:18:55.986Z,72
2016-07-08T03:19:55.996Z,76
2016-07-08T03:20:56.021Z,80
2016-07-08T03:21:56.051Z,84
2016-07-08T03:22:56.072Z,84
2016-07-08T03:23:56.088Z,92
2016-07-08T03:24:56.109Z,92
2016-07-08T03:25:56.157Z,96
2016-07-08T03:26:56.137Z,100
2016-07-08T03:27:56.214Z,100
2016-07-08T03:28:56.173Z,104
2016-07-08T03:29:56.206Z,108
2016-07-08T03:30:56.225Z,112
2016-07-08T03:31:56.231Z,120
2016-07-08T03:32:56.256Z,124
2016-07-08T03:33:56.282Z,128
2016-07-08T03:34:56.299Z,132
2016-07-08T03:35:56.311Z,140
2016-07-08T03:36:56.345Z,144
2016-07-08T03:37:56.358Z,152
2016-07-08T03:38:56.374Z,164
2016-07-08T03:39:56.401Z,176
2016-07-08T03:40:56.410Z,188
2016-07-08T03:41:56.444Z,200
2016-07-08T03:42:56.458Z,212
2016-07-08T03:43:56.479Z,228
2016-07-08T03:44:56.505Z,244
2016-07-08T03:45:56.524Z,264
2016-07-08T03:46:56.532Z,284
2016-07-08T03:47:56.562Z,308
2016-07-08T03:48:56.570Z,336
2016-07-08T03:49:56.587Z,360
2016-07-08T03:50:56.622Z,388
2016-07-08T03:51:56.625Z,412
2016-07-08T03:52:56.646Z,444
2016-07-08T03:53:56.674Z,468
2016-07-08T03:54:56.694Z,496
2016-07-08T03:55:56.710Z,528
2016-07-08T03:56:56.725Z,552
2016-07-08T03:57:56.752Z,576
2016-07-08T03:58:56.777Z,608
2016-07-08T03:59:56.798Z,632
2016-07-08T04:00:56.802Z,660
2016-07-08T04:01:56.839Z,688
2016-07-08T04:02:56.855Z,716
2016-07-08T04:03:56.862Z,744
2016-07-08T04:04:56.906Z,768
2016-07-08T04:05:56.909Z,800
2016-07-08T04:06:56.941Z,828
2016-07-08T04:07:56.962Z,864
2016-07-08T04:08:56.963Z,900
2016-07-08T04:09:56.990Z,944
2016-07-08T04:10:57.004Z,980
2016-07-08T04:11:57.027Z,1020
2016-07-08T04:12:57.046Z,1056
2016-07-08T04:13:57.064Z,1088
2016-07-08T04:14:57.089Z,1124
2016-07-08T04:15:57.121Z,1164
2016-07-08T04:16:57.123Z,1200
2016-07-08T04:17:57.151Z,1248
2016-07-08T04:18:57.171Z,1292
2016-07-08T04:19:57.181Z,1336
2016-07-08T04:20:57.208Z,1372
2016-07-08T04:21:57.220Z,1408
2016-07-08T04:22:57.242Z,1436
2016-07-08T04:23:57.271Z,1464
2016-07-08T04:24:57.290Z,1480
2016-07-08T04:25:57.305Z,1492
2016-07-08T04:26:57.335Z,1492
2016-07-08T04:27:57.343Z,1480
2016-07-08T04:28:57.370Z,1456
2016-07-08T04:29:57.392Z,1424
2016-07-08T04:30:57.399Z,1396
2016-07-08T04:31:57.426Z,1368
2016-07-08T04:32:57.442Z,1344
2016-07-08T04:33:57.469Z,1320
2016-07-08T04:34:57.494Z,1308
2016-07-08T04:35:57.521Z,1308
2016-07-08T04:36:57.521Z,1316
2016-07-08T04:37:57.537Z,1328
2016-07-08T04:38:57.579Z,1348
2016-07-08T04:39:57.585Z,1404
2016-07-08T04:40:57.615Z,1464
2016-07-08T04:41:57.617Z,1536
2016-07-08T04:42:57.645Z,1612
2016-07-08T04:43:57.682Z,1672
2016-07-08T04:44:57.683Z,1744
2016-07-08T04:45:57.700Z,1792
2016-07-08T04:46:57.732Z,1828
2016-07-08T04:47:57.755Z,1860
2016-07-08T04:48:57.765Z,1888
2016-07-08T04:49:57.786Z,1920
2016-07-08T04:50:57.800Z,1960
2016-07-08T04:51:57.845Z,2020
2016-07-08T04:52:57.840Z,2092
2016-07-08T04:53:57.866Z,2192
2016-07-08T04:54:57.894Z,2308
2016-07-08T04:55:57.903Z,2424
2016-07-08T04:56:57.926Z,2536
2016-07-08T04:57:57.951Z,2636
2016-07-08T04:58:57.970Z,2740
2016-07-08T04:59:57.988Z,2836
2016-07-08T05:01:58.058Z,3108
2016-07-08T05:02:58.034Z,3208
2016-07-08T05:03:58.056Z,3320
2016-07-08T05:04:58.070Z,3512
2016-07-08T05:05:58.089Z,3732
2016-07-08T05:06:58.113Z,4008
2016-07-08T05:07:58.134Z,4264
2016-07-08T05:08:58.165Z,4632
2016-07-08T05:09:58.174Z,5420
2016-07-08T05:10:58.194Z,5580
2016-07-08T05:11:58.215Z,6272
2016-07-08T05:12:58.233Z,6272
2016-07-08T05:13:58.253Z,7028
2016-07-08T05:14:58.271Z,7124
2016-07-08T05:15:58.286Z,7344
2016-07-08T05:16:58.356Z,7608
2016-07-08T05:17:58.333Z,7828
2016-07-08T05:18:58.361Z,8012
2016-07-08T05:19:58.374Z,8068
2016-07-08T05:20:58.402Z,7960
2016-07-08T05:21:58.423Z,7756
2016-07-08T05:22:58.437Z,7740
2016-07-08T05:23:58.460Z,7480
2016-07-08T05:24:58.485Z,7388
2016-07-08T05:25:58.511Z,7512
2016-07-08T05:26:58.523Z,7668
2016-07-08T05:27:58.543Z,7272
2016-07-08T05:28:58.570Z,7088
2016-07-08T05:29:58.582Z,6824
2016-07-08T05:30:58.614Z,6672
2016-07-08T05:31:58.632Z,6972
2016-07-08T05:32:58.660Z,7528
2016-07-08T05:33:58.665Z,6208
2016-07-08T05:34:58.702Z,5748
2016-07-08T05:35:58.725Z,5604
2016-07-08T05:36:58.734Z,5568
2016-07-08T05:37:58.766Z,5552
2016-07-08T05:38:58.788Z,5560
2016-07-08T05:39:58.808Z,5604
2016-07-08T05:40:58.826Z,5656
2016-07-08T05:41:58.856Z,5724
2016-07-08T05:42:58.869Z,5740
2016-07-08T05:43:58.904Z,5748
2016-07-08T05:44:58.913Z,5852
2016-07-08T05:45:58.942Z,5804
2016-07-08T05:46:58.966Z,5792
2016-07-08T05:47:58.982Z,5784
2016-07-08T05:48:59.002Z,5944
2016-07-08T05:49:59.029Z,6160
2016-07-08T05:50:59.063Z,5960
2016-07-08T05:51:59.080Z,6124
2016-07-08T05:52:59.092Z,6260
2016-07-08T05:53:59.117Z,6236
2016-07-08T05:54:59.130Z,6284
2016-07-08T05:55:59.162Z,6144
2016-07-08T05:56:59.184Z,6220
2016-07-08T05:57:59.211Z,6124
2016-07-08T05:58:59.218Z,6080
2016-07-08T05:59:59.250Z,6092
2016-07-08T06:00:59.266Z,6116
2016-07-08T06:01:59.294Z,6100
2016-07-08T06:02:59.326Z,6064
2016-07-08T06:03:59.337Z,6036
2016-07-08T06:04:59.360Z,5960
2016-07-08T06:05:59.382Z,5812
2016-07-08T06:06:59.399Z,5764
2016-07-08T06:07:59.419Z,5680
2016-07-08T06:08:59.452Z,5616
2016-07-08T06:09:59.466Z,5532
2016-07-08T06:10:59.497Z,5496
2016-07-08T06:11:59.512Z,5504
2016-07-08T06:12:59.531Z,5504
2016-07-08T06:13:59.561Z,5540
2016-07-08T06:14:59.588Z,5584
2016-07-08T06:15:59.612Z,5612
2016-07-08T06:16:59.620Z,5680
2016-07-08T06:17:59.645Z,5748
2016-07-08T06:18:59.673Z,5636
2016-07-08T06:19:59.709Z,5576
2016-07-08T06:20:59.724Z,5424
2016-07-08T06:21:59.739Z,5340
2016-07-08T06:22:59.763Z,5396
2016-07-08T06:23:59.778Z,5212
2016-07-08T06:24:59.844Z,5248
2016-07-08T06:25:59.873Z,5380
2016-07-08T06:26:59.907Z,5596
2016-07-08T06:27:59.936Z,5480
2016-07-08T06:28:59.937Z,5368
2016-07-08T06:30:00.017Z,5340
2016-07-08T06:30:59.954Z,5300
2016-07-08T06:32:00.025Z,5240
2016-07-08T06:32:59.975Z,5212
2016-07-08T06:34:00.088Z,5208
2016-07-08T06:35:00.072Z,5252
2016-07-08T06:36:00.116Z,5296
2016-07-08T06:37:00.128Z,5340
2016-07-08T06:38:00.151Z,5460
2016-07-08T06:39:00.156Z,5324
2016-07-08T06:40:00.169Z,5340
2016-07-08T06:41:00.182Z,5412
2016-07-08T06:42:00.198Z,5496
2016-07-08T06:43:00.197Z,5460
2016-07-08T06:44:00.282Z,5472
2016-07-08T06:45:00.295Z,5540
2016-07-08T06:46:00.316Z,5596
2016-07-08T06:47:00.357Z,5676
2016-07-08T06:48:00.365Z,5740
2016-07-08T06:49:00.384Z,5800
2016-07-08T06:50:00.380Z,5852
2016-07-08T06:51:00.384Z,5908
2016-07-08T06:52:00.413Z,5964
2016-07-08T06:53:00.441Z,6076
2016-07-08T06:54:00.499Z,6180
2016-07-08T06:55:00.527Z,6276
2016-07-08T06:56:00.528Z,6420
2016-07-08T06:57:00.578Z,6512
2016-07-08T06:58:00.590Z,6468
2016-07-08T06:59:00.594Z,6448
2016-07-08T07:00:00.588Z,6420
2016-07-08T07:01:00.614Z,6448
2016-07-08T07:02:00.625Z,6420
2016-07-08T07:03:00.658Z,6520
2016-07-08T07:04:00.683Z,6616
2016-07-08T07:05:00.689Z,6756
2016-07-08T07:06:00.717Z,6916
2016-07-08T07:07:00.742Z,7064
2016-07-08T07:08:00.768Z,7176
2016-07-08T07:09:00.785Z,7232
2016-07-08T07:10:00.809Z,7216
2016-07-08T07:11:00.824Z,7120
2016-07-08T07:12:00.851Z,6984
2016-07-08T07:13:00.896Z,6868
2016-07-08T07:14:00.895Z,6804
2016-07-08T07:15:00.925Z,6784
2016-07-08T07:16:00.942Z,6812
2016-07-08T07:17:00.965Z,6876
2016-07-08T07:18:00.993Z,6944
2016-07-08T07:19:01.022Z,7036
2016-07-08T07:20:01.044Z,7144
2016-07-08T07:21:01.062Z,7260
2016-07-08T07:22:01.080Z,7356
2016-07-08T07:23:01.093Z,7472
2016-07-08T07:24:01.129Z,7600
2016-07-08T07:25:01.165Z,7736
2016-07-08T07:26:01.160Z,7868
2016-07-08T07:27:01.200Z,7984
2016-07-08T07:28:01.217Z,8064
2016-07-08T07:29:01.249Z,8128
2016-07-08T07:30:01.270Z,8204
2016-07-08T07:31:01.284Z,8300
2016-07-08T07:32:01.312Z,8396
2016-07-08T07:33:01.333Z,8468
2016-07-08T07:34:01.360Z,8508
2016-07-08T07:35:01.386Z,8580
2016-07-08T07:36:01.400Z,8692
2016-07-08T07:37:01.422Z,8840
2016-07-08T07:38:01.449Z,8968
2016-07-08T07:39:01.473Z,9068
2016-07-08T07:40:01.498Z,9096
2016-07-08T07:41:01.516Z,9068
2016-07-08T07:42:01.542Z,8948
2016-07-08T07:43:01.567Z,8748
2016-07-08T07:44:01.577Z,8540
2016-07-08T07:45:01.615Z,8320
2016-07-08T07:46:01.636Z,7852
2016-07-08T07:47:01.669Z,7796
2016-07-08T07:48:01.676Z,8064
2016-07-08T07:49:01.703Z,7944
2016-07-08T07:50:01.735Z,8064
2016-07-08T07:51:01.749Z,7984
2016-07-08T07:52:01.771Z,7928
2016-07-08T07:53:01.803Z,7920
2016-07-08T07:54:01.824Z,7756
2016-07-08T07:55:01.842Z,7688
2016-07-08T07:56:01.875Z,7624
2016-07-08T07:57:01.897Z,7580
2016-07-08T07:58:01.912Z,7532
2016-07-08T07:59:01.936Z,7496
2016-07-08T08:00:02.030Z,7496
2016-07-08T08:01:01.993Z,7532
2016-07-08T08:02:02.009Z,7568
2016-07-08T08:03:02.038Z,7600
2016-07-08T08:04:02.080Z,7664
2016-07-08T08:05:02.084Z,7696
2016-07-08T08:06:02.097Z,7724
2016-07-08T08:07:02.128Z,7772
2016-07-08T08:08:02.149Z,7816
2016-07-08T08:09:02.172Z,7884
2016-07-08T08:10:02.256Z,7904
2016-07-08T08:11:02.231Z,7904
2016-07-08T08:12:02.304Z,7920
2016-07-08T08:13:02.270Z,7904
2016-07-08T08:14:02.352Z,7940
2016-07-08T08:15:02.311Z,8008
2016-07-08T08:16:02.379Z,8168
2016-07-08T08:17:02.365Z,8284
2016-07-08T08:18:02.437Z,8404
2016-07-08T08:19:02.412Z,8384
2016-07-08T08:20:02.440Z,8424
2016-07-08T08:21:02.458Z,8508
2016-07-08T08:22:02.504Z,8596
2016-07-08T08:23:02.505Z,8688
2016-07-08T08:24:02.534Z,8804
2016-07-08T08:25:02.549Z,8948
2016-07-08T08:26:02.568Z,9108
2016-07-08T08:27:02.605Z,9248
2016-07-08T08:28:02.620Z,9452
2016-07-08T08:29:02.652Z,9596
2016-07-08T08:30:02.683Z,9848
2016-07-08T08:31:02.698Z,10044
2016-07-08T08:32:02.722Z,10196
2016-07-08T08:33:02.746Z,10244
2016-07-08T08:34:02.763Z,10472
2016-07-08T08:35:02.790Z,10300
2016-07-08T08:36:02.832Z,10608
2016-07-08T08:37:02.837Z,10576
2016-07-08T08:38:02.858Z,10356
2016-07-08T08:39:02.887Z,10352
2016-07-08T08:40:02.907Z,9896
2016-07-08T08:41:02.934Z,9960
2016-07-08T08:42:02.961Z,10092
2016-07-08T08:43:02.977Z,10120
2016-07-08T08:44:03.018Z,10016
2016-07-08T08:45:03.027Z,11084
2016-07-08T08:46:03.111Z,11504
2016-07-08T08:47:03.072Z,11252
2016-07-08T08:48:03.106Z,10628
2016-07-08T08:49:03.131Z,10184
2016-07-08T08:50:03.149Z,10248
2016-07-08T08:51:03.176Z,10076
2016-07-08T08:52:03.185Z,10112
2016-07-08T08:53:03.224Z,10172
2016-07-08T08:54:03.241Z,10212
2016-07-08T08:55:03.275Z,10504
2016-07-08T08:56:03.296Z,10592
2016-07-08T08:57:03.317Z,11092
2016-07-08T08:58:03.352Z,11264
2016-07-08T08:59:03.366Z,11500
2016-07-08T09:00:03.389Z,11184
2016-07-08T09:01:03.423Z,11172
2016-07-08T09:02:03.432Z,11452
2016-07-08T09:03:03.469Z,11656
2016-07-08T09:04:03.487Z,11768
2016-07-08T09:05:03.522Z,11352
2016-07-08T09:06:03.536Z,10488
2016-07-08T09:07:03.571Z,10376
2016-07-08T09:08:03.590Z,10356
2016-07-08T09:09:03.619Z,10524
2016-07-08T09:10:03.636Z,10592
2016-07-08T09:11:03.660Z,10620
2016-07-08T09:12:03.698Z,10724
2016-07-08T09:13:03.711Z,10768
2016-07-08T09:14:03.741Z,10884
2016-07-08T09:15:03.767Z,11256
2016-07-08T09:16:03.789Z,11736
2016-07-08T09:17:03.821Z,11912
2016-07-08T09:18:03.838Z,12556
2016-07-08T09:19:03.867Z,12156
2016-07-08T09:20:03.888Z,12960
2016-07-08T09:21:03.919Z,11584
2016-07-08T09:22:03.953Z,11932
2016-07-08T09:23:03.962Z,11832
2016-07-08T09:24:03.989Z,11968
2016-07-08T09:25:04.004Z,12124
2016-07-08T09:26:04.040Z,12604
2016-07-08T09:27:04.058Z,13336
2016-07-08T09:28:04.099Z,13116
2016-07-08T09:29:04.123Z,12448
2016-07-08T09:30:04.135Z,11996
2016-07-08T09:31:04.156Z,11576
2016-07-08T09:32:04.193Z,12036
2016-07-08T09:33:04.255Z,9880
2016-07-08T09:34:04.234Z,9652
2016-07-08T09:35:04.261Z,9576
2016-07-08T09:36:04.289Z,9232
2016-07-08T09:37:04.322Z,8028
2016-07-08T09:38:04.348Z,7304
2016-07-08T09:39:04.356Z,6892
2016-07-08T09:40:04.384Z,6532
2016-07-08T09:41:04.421Z,6168
2016-07-08T09:42:04.453Z,5992
2016-07-08T09:43:04.452Z,5816
2016-07-08T09:44:04.487Z,5844
2016-07-08T09:45:04.507Z,5988
2016-07-08T09:46:04.579Z,6212
2016-07-08T09:47:04.559Z,6472
2016-07-08T09:48:04.665Z,6748
2016-07-08T09:49:04.616Z,7000
2016-07-08T09:50:04.658Z,7148
2016-07-08T09:51:04.657Z,7284
2016-07-08T09:52:04.740Z,7548
2016-07-08T09:53:04.699Z,7364
2016-07-08T09:54:04.752Z,7372
2016-07-08T09:55:04.747Z,7448
2016-07-08T09:56:04.777Z,7688
2016-07-08T09:57:04.809Z,7912
2016-07-08T09:58:04.830Z,8400
2016-07-08T09:59:04.850Z,8964
2016-07-08T10:00:04.874Z,9672
2016-07-08T10:01:04.892Z,9840
2016-07-08T10:02:04.917Z,10096
2016-07-08T10:03:04.947Z,10160
2016-07-08T10:04:04.968Z,10264
2016-07-08T10:05:04.986Z,10340
2016-07-08T10:06:05.035Z,10376
2016-07-08T10:07:05.033Z,10456
2016-07-08T10:08:05.067Z,10580
2016-07-08T10:09:05.086Z,10908
2016-07-08T10:10:05.123Z,10896
2016-07-08T10:11:05.134Z,10980
2016-07-08T10:12:05.160Z,11124
2016-07-08T10:13:05.187Z,11248
2016-07-08T10:14:05.223Z,11204
2016-07-08T10:15:05.240Z,11416
2016-07-08T10:16:05.306Z,10896
2016-07-08T10:17:05.292Z,10796
2016-07-08T10:18:05.307Z,10696
2016-07-08T10:19:05.332Z,10748
2016-07-08T10:20:05.367Z,10776
2016-07-08T10:21:05.394Z,10836
2016-07-08T10:22:05.409Z,10948
2016-07-08T10:23:05.427Z,10868
2016-07-08T10:24:05.451Z,10620
2016-07-08T10:25:05.492Z,10636
2016-07-08T10:26:05.501Z,10720
2016-07-08T10:27:05.532Z,10824
2016-07-08T10:28:05.547Z,11020
2016-07-08T10:29:05.579Z,11108
2016-07-08T10:30:05.616Z,11204
2016-07-08T10:31:05.628Z,11348
2016-07-08T10:32:05.654Z,11552
2016-07-08T10:33:05.675Z,11828
2016-07-08T10:34:05.696Z,12220
2016-07-08T10:35:05.717Z,12380
2016-07-08T10:36:05.762Z,12700
2016-07-08T10:37:05.790Z,12696
2016-07-08T10:38:05.798Z,12616
2016-07-08T10:39:05.824Z,12352
2016-07-08T10:40:05.841Z,12264
2016-07-08T10:41:05.885Z,12164
2016-07-08T10:42:05.898Z,12064
2016-07-08T10:43:05.929Z,11972
2016-07-08T10:44:05.946Z,11880
2016-07-08T10:45:05.988Z,11700
2016-07-08T10:46:06.005Z,11516
2016-07-08T10:47:06.024Z,11316
2016-07-08T10:48:06.058Z,11104
2016-07-08T10:49:06.079Z,10900
2016-07-08T10:50:06.096Z,10736
2016-07-08T10:51:06.132Z,10508
2016-07-08T10:52:06.157Z,10216
2016-07-08T10:53:06.179Z,9988
2016-07-08T10:54:06.203Z,9680
2016-07-08T10:55:06.231Z,9088
2016-07-08T10:56:06.252Z,8772
2016-07-08T10:57:06.273Z,8544
2016-07-08T10:58:06.317Z,8360
2016-07-08T10:59:06.324Z,8208
2016-07-08T11:00:06.348Z,8080
2016-07-08T11:01:06.366Z,7956
2016-07-08T11:02:06.406Z,7812
2016-07-08T11:03:06.431Z,7656
2016-07-08T11:04:06.448Z,7508
2016-07-08T11:05:06.541Z,7392
2016-07-08T11:06:06.495Z,7348
2016-07-08T11:07:06.528Z,7336
2016-07-08T11:08:06.562Z,7332
2016-07-08T11:09:06.577Z,7324
2016-07-08T11:10:06.606Z,7276
2016-07-08T11:11:06.624Z,7184
2016-07-08T11:12:06.651Z,7016
2016-07-08T11:13:07.610Z,6796
2016-07-08T11:15:16.036Z,6488
2016-07-08T11:16:25.722Z,6428
2016-07-08T11:16:49.312Z,6428
2016-07-08T11:17:49.332Z,6480
2016-07-08T11:18:49.350Z,6540
2016-07-08T11:19:49.376Z,6608
2016-07-08T11:20:49.404Z,6672
2016-07-08T11:21:49.417Z,6664
2016-07-08T11:22:49.448Z,6568
2016-07-08T11:23:49.468Z,6436
2016-07-08T11:24:49.500Z,6332
2016-07-08T11:25:49.527Z,6280
2016-07-08T11:26:49.544Z,6260
2016-07-08T11:27:49.565Z,6228
2016-07-08T11:28:49.585Z,6212
2016-07-08T11:29:49.630Z,6208
2016-07-08T11:30:49.638Z,6188
2016-07-08T11:31:49.671Z,6124
2016-07-08T11:32:49.685Z,6028
2016-07-08T11:33:49.706Z,5888
2016-07-08T11:34:49.735Z,5696
2016-07-08T11:35:49.763Z,5480
2016-07-08T11:36:49.788Z,5284
2016-07-08T11:37:49.806Z,5156
2016-07-08T11:38:49.827Z,5044
2016-07-08T11:39:49.859Z,4928
2016-07-08T11:40:49.884Z,4824
2016-07-08T11:41:49.909Z,4776
2016-07-08T11:42:49.926Z,4784
2016-07-08T11:43:49.959Z,4836
2016-07-08T11:44:49.976Z,4944
2016-07-08T11:45:49.993Z,5152
2016-07-08T11:46:50.048Z,5304
2016-07-08T11:47:50.047Z,5444
2016-07-08T11:48:50.071Z,5624
2016-07-08T11:49:50.089Z,5816
2016-07-08T11:50:50.125Z,6024
2016-07-08T11:51:50.151Z,6256
2016-07-08T11:52:50.167Z,6420
2016-07-08T11:53:50.196Z,6452
2016-07-08T11:54:50.209Z,6444
2016-07-08T11:55:50.243Z,6476
2016-07-08T11:56:50.280Z,6660
2016-07-08T11:57:50.306Z,6900
2016-07-08T11:58:50.310Z,6984
2016-07-08T11:59:50.334Z,6936
2016-07-08T12:00:50.365Z,6976
2016-07-08T12:01:50.391Z,7068
2016-07-08T12:02:50.403Z,7340
2016-07-08T12:03:50.435Z,7616
2016-07-08T12:04:50.443Z,7884
2016-07-08T12:05:50.479Z,7952
2016-07-08T12:06:50.502Z,7928
2016-07-08T12:07:50.528Z,7840
2016-07-08T12:08:50.540Z,7688
2016-07-08T12:09:50.587Z,7488
2016-07-08T12:10:50.602Z,7348
2016-07-08T12:11:50.612Z,7344
2016-07-08T12:12:50.646Z,7356
2016-07-08T12:13:50.670Z,7308
2016-07-08T12:14:50.691Z,7220
2016-07-08T12:15:50.710Z,7020
2016-07-08T12:16:50.729Z,6784
2016-07-08T12:17:50.766Z,6668
2016-07-08T12:18:50.787Z,6684
2016-07-08T12:19:50.813Z,6616
2016-07-08T12:20:50.841Z,6592
2016-07-08T12:21:50.861Z,6880
2016-07-08T12:22:50.883Z,7220
2016-07-08T12:23:50.914Z,7652
2016-07-08T12:24:50.932Z,7844
2016-07-08T12:25:50.952Z,7876
2016-07-08T12:26:50.985Z,7732
2016-07-08T12:27:51.010Z,7460
2016-07-08T12:28:51.028Z,7432
2016-07-08T12:29:51.061Z,7740
2016-07-08T12:30:51.076Z,8312
2016-07-08T12:31:51.097Z,8508
2016-07-08T12:32:51.124Z,8092
2016-07-08T12:33:51.148Z,7532
2016-07-08T12:34:51.172Z,7600
2016-07-08T12:35:51.206Z,8212
2016-07-08T12:36:51.224Z,8756
2016-07-08T12:37:51.240Z,9156
2016-07-08T12:38:51.274Z,9628
2016-07-08T12:39:51.300Z,9932
2016-07-08T12:40:51.319Z,10292
2016-07-08T12:41:51.339Z,10456
2016-07-08T12:42:51.352Z,10832
2016-07-08T12:43:51.392Z,11728
2016-07-08T12:44:51.415Z,11792
2016-07-08T12:45:51.434Z,12172
2016-07-08T12:46:51.455Z,12168
2016-07-08T12:47:51.491Z,12272
2016-07-08T12:48:51.505Z,12164
2016-07-08T12:49:51.537Z,11592
2016-07-08T12:50:51.556Z,11184
2016-07-08T12:51:51.587Z,11140
2016-07-08T12:52:51.603Z,10852
2016-07-08T12:53:51.625Z,10800
2016-07-08T12:54:51.662Z,10884
2016-07-08T12:55:51.687Z,11220
2016-07-08T12:56:51.697Z,11436
2016-07-08T12:57:51.732Z,11532
2016-07-08T12:58:51.741Z,12616
2016-07-08T12:59:51.781Z,13892
2016-07-08T13:00:51.805Z,12156
2016-07-08T13:01:51.829Z,12356
2016-07-08T13:02:51.840Z,12608
2016-07-08T13:03:51.881Z,13128
2016-07-08T13:04:51.900Z,13856
2016-07-08T13:05:51.925Z,13884
2016-07-08T13:06:51.948Z,13260
2016-07-08T13:07:51.964Z,12912
2016-07-08T13:08:51.996Z,13268
2016-07-08T13:09:52.017Z,13120
2016-07-08T13:10:52.049Z,13128
2016-07-08T13:11:52.077Z,14000
2016-07-08T13:12:52.087Z,13384
2016-07-08T13:13:52.116Z,12980
2016-07-08T13:14:52.149Z,12120
2016-07-08T13:15:52.170Z,12236
2016-07-08T13:16:52.198Z,13900
2016-07-08T13:17:52.215Z,12244
2016-07-08T13:18:52.236Z,9996
2016-07-08T13:19:52.268Z,9904
2016-07-08T13:20:52.294Z,9892
2016-07-08T13:21:52.311Z,9736
2016-07-08T13:22:52.339Z,9704
2016-07-08T13:23:52.360Z,9956
2016-07-08T13:24:52.405Z,9636
2016-07-08T13:25:52.411Z,9780
2016-07-08T13:26:52.441Z,10096
2016-07-08T13:27:52.464Z,10416
2016-07-08T13:28:52.481Z,10900
2016-07-08T13:29:52.516Z,11088
2016-07-08T13:30:52.539Z,10924
2016-07-08T13:31:52.566Z,10808
2016-07-08T13:32:52.829Z,10840
2016-07-08T13:33:52.619Z,10848
2016-07-08T13:34:52.643Z,11044
2016-07-08T13:35:52.669Z,10520
2016-07-08T13:36:52.689Z,10540